Time;durP1;ratioP1;P1;durP2;ratioP2;P2;SDS_P1;SDS_P2;PMS_P1;PMS_P2;Temp;Humidity;BMP_temperature;BMP_pressure;BME280_temperature;BME280_humidity;BME280_pressure;Samples;Min_cycle;Max_cycle;Signal;HPM_P1;HPM_P2
2022/01/10 00:00:15;;;;;;;6.93;3.83;;;;;;;16.66;60.29;101103.06;4832868;29;20120;-76
2022/01/10 00:02:43;;;;;;;6.32;3.90;;;;;;;16.66;59.96;101106.50;4864896;29;20037;-77
2022/01/10 00:05:09;;;;;;;7.47;3.83;;;;;;;16.65;61.39;101104.75;4833200;29;20049;-76
2022/01/10 00:07:35;;;;;;;6.88;3.67;;;;;;;16.64;60.84;101104.78;4833016;29;20041;-76
2022/01/10 00:10:02;;;;;;;6.07;3.50;;;;;;;16.65;60.20;101107.34;4848120;29;20069;-76
2022/01/10 00:12:27;;;;;;;6.88;3.75;;;;;;;16.64;60.36;101110.84;4848419;29;20124;-76
2022/01/10 00:14:52;;;;;;;7.40;3.80;;;;;;;16.65;60.64;101111.69;4832717;29;20061;-76
2022/01/10 00:17:18;;;;;;;7.20;3.85;;;;;;;16.65;60.81;101117.75;4848295;29;20049;-76
2022/01/10 00:19:43;;;;;;;5.90;3.35;;;;;;;16.64;59.67;101123.84;4832869;29;20071;-76
2022/01/10 00:22:09;;;;;;;5.70;3.60;;;;;;;16.62;60.83;101120.38;4832944;29;20045;-76
2022/01/10 00:24:35;;;;;;;6.70;3.80;;;;;;;16.63;60.20;101131.63;4864836;29;20045;-76
2022/01/10 00:27:00;;;;;;;6.72;3.60;;;;;;;16.65;59.71;101140.28;4847678;29;20042;-75
2022/01/10 00:29:25;;;;;;;6.57;3.45;;;;;;;16.63;59.58;101140.28;4847399;29;20066;-76
2022/01/10 00:31:51;;;;;;;7.00;3.33;;;;;;;16.63;59.66;101136.81;4863974;29;20041;-76
2022/01/10 00:34:16;;;;;;;7.22;3.88;;;;;;;16.64;59.67;101139.41;4847593;29;20045;-76
2022/01/10 00:36:42;;;;;;;5.40;3.30;;;;;;;16.62;59.90;101135.97;4847497;29;20136;-76
2022/01/10 00:39:08;;;;;;;6.55;3.40;;;;;;;16.63;59.71;101142.00;4832195;29;20098;-78
2022/01/10 00:41:33;;;;;;;9.15;3.80;;;;;;;16.63;60.59;101142.88;4847615;29;20046;-76
2022/01/10 00:44:01;;;;;;;6.28;3.25;;;;;;;16.63;61.40;101155.00;4847343;29;20408;-76
2022/01/10 00:46:26;;;;;;;4.95;2.95;;;;;;;16.62;60.30;101166.28;4847893;29;20062;-76
2022/01/10 00:48:51;;;;;;;5.13;3.08;;;;;;;16.64;59.82;101169.75;4831940;29;20092;-76
2022/01/10 00:51:18;;;;;;;5.32;3.00;;;;;;;16.62;60.43;101172.34;4863903;29;20050;-76
2022/01/10 00:53:44;;;;;;;4.30;3.10;;;;;;;16.63;60.26;101184.44;4864373;29;20132;-76
2022/01/10 00:56:09;;;;;;;5.38;3.10;;;;;;;16.64;60.08;101180.13;4864127;29;20170;-76
2022/01/10 00:58:36;;;;;;;6.03;3.30;;;;;;;16.63;60.08;101171.44;4863893;29;20045;-79
2022/01/10 01:01:03;;;;;;;6.40;3.17;;;;;;;16.64;59.86;101182.72;4847209;29;20530;-76
2022/01/10 01:03:28;;;;;;;6.30;3.13;;;;;;;16.62;60.07;101187.91;4863690;29;20101;-76
2022/01/10 01:05:54;;;;;;;5.72;3.20;;;;;;;16.64;60.13;101191.38;4846999;29;20136;-80
2022/01/10 01:08:19;;;;;;;4.80;2.95;;;;;;;16.63;58.77;101194.84;4864346;29;20041;-79
2022/01/10 01:26:27;;;;;;;6.35;3.10;;;;;;;16.64;60.09;101211.31;4836176;29;20046;-80
2022/01/10 01:28:52;;;;;;;5.85;3.00;;;;;;;16.64;60.02;101211.31;4847683;29;20044;-79
2022/01/10 01:31:18;;;;;;;5.20;2.95;;;;;;;16.63;59.94;101213.03;4864651;29;20041;-79
2022/01/10 01:33:43;;;;;;;6.00;3.10;;;;;;;16.62;60.06;101221.69;4848583;29;20178;-79
2022/01/10 01:36:09;;;;;;;5.15;3.00;;;;;;;16.62;59.24;101223.44;4865485;29;20042;-79
2022/01/10 01:38:34;;;;;;;5.00;2.90;;;;;;;16.62;59.55;101232.09;4834280;29;20033;-79
2022/01/10 01:41:18;;;;;;;5.22;3.03;;;;;;;16.62;59.56;101229.50;4865385;29;20424;-79
2022/01/10 01:43:44;;;;;;;4.70;2.53;;;;;;;16.64;60.85;101238.16;4851807;29;20048;-80
2022/01/10 01:46:10;;;;;;;3.75;2.40;;;;;;;16.62;59.48;101232.09;4865320;29;20116;-80
2022/01/10 01:48:35;;;;;;;5.07;2.78;;;;;;;16.63;59.73;101244.22;4865548;29;20069;-79
2022/01/10 01:51:02;;;;;;;4.90;2.47;;;;;;;16.63;59.80;101253.75;4849437;29;20054;-80
2022/01/10 01:53:27;;;;;;;4.93;2.92;;;;;;;16.62;60.30;101260.69;4868929;29;20048;-82
2022/01/10 01:55:52;;;;;;;5.57;2.83;;;;;;;16.63;59.52;101264.13;4856014;29;20116;-80
2022/01/10 01:58:18;;;;;;;5.63;2.75;;;;;;;16.62;59.50;101276.28;4856101;29;20441;-80
2022/01/10 02:00:43;;;;;;;4.65;2.95;;;;;;;16.62;58.73;101265.00;4853757;29;20037;-79
2022/01/10 02:03:09;;;;;;;5.88;3.03;;;;;;;16.62;59.79;101275.41;4855003;29;20485;-80
2022/01/10 02:05:34;;;;;;;5.55;3.00;;;;;;;16.62;59.94;101280.59;4825045;29;20093;-80
2022/01/10 02:08:00;;;;;;;5.55;2.95;;;;;;;16.64;59.11;101294.47;4872363;29;20041;-80
2022/01/10 02:10:26;;;;;;;6.35;2.85;;;;;;;16.64;59.25;101302.25;4837004;29;20072;-79
2022/01/10 02:12:52;;;;;;;4.22;2.50;;;;;;;16.62;58.81;101297.06;4835165;29;20459;-79
2022/01/10 02:15:58;;;;;;;4.25;2.58;;;;;;;16.61;58.98;101297.94;4853652;29;20076;-79
2022/01/10 02:18:20;;;;;;;4.50;2.17;;;;;;;16.60;59.12;101305.72;4868071;29;20426;-79
2022/01/10 02:20:46;;;;;;;5.07;2.40;;;;;;;16.60;58.92;101311.78;4867873;29;20034;-81
2022/01/10 02:23:13;;;;;;;5.32;2.78;;;;;;;16.60;59.28;101318.72;4867223;29;20041;-80
2022/01/10 02:25:39;;;;;;;5.82;2.90;;;;;;;16.60;60.50;101324.75;4836310;29;20093;-79
2022/01/10 02:28:04;;;;;;;4.15;2.50;;;;;;;16.60;58.98;101332.56;4868452;29;20033;-79
2022/01/10 02:30:30;;;;;;;5.28;2.90;;;;;;;16.61;59.10;101325.63;4836535;29;20425;-80
2022/01/10 02:32:57;;;;;;;5.75;2.72;;;;;;;16.60;59.02;101326.50;4865988;29;20061;-79
2022/01/10 02:35:26;;;;;;;4.50;2.60;;;;;;;16.60;59.17;101342.94;4851543;29;20048;-79
2022/01/10 02:37:53;;;;;;;4.80;2.72;;;;;;;16.62;59.28;101346.44;4866437;29;20069;-80
2022/01/10 02:40:21;;;;;;;5.45;2.67;;;;;;;16.60;59.93;101337.75;4847294;29;20056;-79
2022/01/10 02:42:47;;;;;;;4.57;2.53;;;;;;;16.60;58.93;101345.56;4850260;29;20048;-79
2022/01/10 02:45:13;;;;;;;5.20;2.80;;;;;;;16.60;59.23;101355.94;4832412;29;20045;-79
2022/01/10 02:47:38;;;;;;;5.07;2.30;;;;;;;16.60;59.25;101342.09;4863499;29;20041;-80
2022/01/10 02:50:05;;;;;;;4.82;2.35;;;;;;;16.61;59.55;101357.69;4851319;29;20082;-80
2022/01/10 02:52:30;;;;;;;4.07;2.25;;;;;;;16.60;59.92;101358.53;4852000;29;20052;-80
2022/01/10 02:55:00;;;;;;;5.53;2.70;;;;;;;16.61;59.29;101354.22;4851656;29;20068;-79
2022/01/10 02:57:25;;;;;;;4.20;2.35;;;;;;;16.60;58.22;101352.50;4852222;29;20504;-80
2022/01/10 02:59:51;;;;;;;4.28;2.50;;;;;;;16.59;58.59;101366.31;4853516;29;20045;-79
2022/01/10 03:02:21;;;;;;;4.57;2.70;;;;;;;16.60;59.36;101370.69;4838714;29;20074;-80
2022/01/10 03:04:46;;;;;;;6.80;2.75;;;;;;;16.61;58.46;101375.00;4855740;29;20090;-80
2022/01/10 03:07:17;;;;;;;4.53;2.50;;;;;;;16.61;59.34;101370.69;4854995;29;20041;-80
2022/01/10 03:09:42;;;;;;;4.80;2.30;;;;;;;16.60;57.88;101376.72;4854005;29;20062;-79
2022/01/10 03:12:09;;;;;;;4.00;2.35;;;;;;;16.60;58.20;101384.53;4852736;29;20041;-79
2022/01/10 03:14:38;;;;;;;4.50;2.40;;;;;;;16.58;58.97;101383.66;4840756;29;20041;-80
2022/01/10 03:17:03;;;;;;;3.88;2.17;;;;;;;16.60;59.41;101394.06;4855342;29;20477;-79
2022/01/10 03:19:29;;;;;;;4.85;2.42;;;;;;;16.60;59.97;101388.88;4852580;29;20048;-79
2022/01/10 03:21:54;;;;;;;4.07;2.40;;;;;;;16.63;58.61;101414.84;4838909;29;20045;-79
2022/01/10 03:24:19;;;;;;;5.22;2.45;;;;;;;16.63;58.91;101413.09;4855170;29;20050;-80
2022/01/10 03:26:45;;;;;;;4.53;2.40;;;;;;;16.63;59.20;101413.09;4868544;29;20121;-80
2022/01/10 03:29:10;;;;;;;5.07;2.50;;;;;;;16.64;58.30;101417.47;4839727;29;20033;-79
2022/01/10 03:31:36;;;;;;;3.85;2.00;;;;;;;16.65;58.96;101413.97;4857606;29;20030;-79
2022/01/10 03:34:02;;;;;;;3.90;2.30;;;;;;;16.66;58.46;101422.69;4851329;29;20049;-80
2022/01/10 03:36:28;;;;;;;6.15;2.17;;;;;;;16.66;58.85;101418.34;4854355;29;20124;-80
2022/01/10 03:38:53;;;;;;;3.15;1.98;;;;;;;16.66;58.37;101423.53;4855465;29;20384;-80
2022/01/10 03:41:18;;;;;;;4.30;2.20;;;;;;;16.66;58.30;101433.94;4857761;29;20124;-79
2022/01/10 03:43:44;;;;;;;3.78;2.10;;;;;;;16.67;57.92;101434.78;4856372;29;20500;-80
2022/01/10 03:46:09;;;;;;;3.47;2.10;;;;;;;16.67;58.15;101440.84;4868928;29;20033;-80
2022/01/10 03:48:35;;;;;;;4.15;2.05;;;;;;;16.66;58.23;101452.13;4855348;29;20099;-79
2022/01/10 03:51:01;;;;;;;5.25;2.10;;;;;;;16.66;58.16;101454.72;4833699;29;20113;-80
2022/01/10 03:53:26;;;;;;;4.65;2.50;;;;;;;16.66;57.94;101443.47;4865553;29;20124;-79
2022/01/10 03:55:52;;;;;;;4.20;2.00;;;;;;;16.66;58.33;101446.06;4833331;29;20043;-80
2022/01/10 03:58:17;;;;;;;4.05;2.05;;;;;;;16.65;58.18;101452.09;4848990;29;20030;-80
2022/01/10 04:00:42;;;;;;;3.58;2.03;;;;;;;16.65;58.18;101450.38;4849517;29;20085;-80
2022/01/10 04:03:08;;;;;;;4.13;1.98;;;;;;;16.64;57.64;101465.97;4849906;29;20464;-79
2022/01/10 04:05:34;;;;;;;4.18;2.05;;;;;;;16.64;58.11;101463.38;4848691;29;20050;-79
2022/01/10 04:08:00;;;;;;;5.55;2.25;;;;;;;16.63;58.36;101464.22;4865442;29;20070;-79
2022/01/10 04:10:26;;;;;;;3.58;2.00;;;;;;;16.63;58.28;101478.06;4865066;29;20507;-79
2022/01/10 04:12:51;;;;;;;3.50;1.90;;;;;;;16.63;58.33;101479.81;4865126;29;20038;-80
2022/01/10 04:15:17;;;;;;;3.92;2.10;;;;;;;16.62;58.35;101484.16;4865614;29;20488;-80
2022/01/10 04:17:42;;;;;;;3.90;2.00;;;;;;;16.63;57.51;101482.41;4864811;29;20049;-79
2022/01/10 04:20:08;;;;;;;3.83;1.70;;;;;;;16.62;57.78;101489.34;4869744;29;20053;-80
2022/01/10 04:22:33;;;;;;;3.72;1.90;;;;;;;16.62;58.77;101491.94;4848860;29;20120;-80
2022/01/10 04:25:00;;;;;;;4.03;2.30;;;;;;;16.62;58.76;101493.69;4832949;29;20061;-79
2022/01/10 04:27:26;;;;;;;3.70;2.15;;;;;;;16.61;58.71;101492.81;4848019;29;20050;-79
2022/01/10 04:29:51;;;;;;;4.10;2.20;;;;;;;16.62;58.24;101504.06;4847918;29;20406;-79
2022/01/10 04:32:17;;;;;;;4.00;2.10;;;;;;;16.62;58.66;101509.28;4864763;29;20044;-79
2022/01/10 04:34:43;;;;;;;3.70;1.85;;;;;;;16.62;58.11;101514.47;4865568;29;20557;-80
2022/01/10 04:37:09;;;;;;;4.95;2.08;;;;;;;16.61;57.96;101531.81;4865354;29;20030;-76
2022/01/10 04:39:34;;;;;;;4.57;2.20;;;;;;;16.61;58.92;101533.50;4832772;29;20516;-76
2022/01/10 04:41:59;;;;;;;3.10;2.03;;;;;;;16.61;58.41;101547.38;4847611;29;20427;-76
2022/01/10 04:44:25;;;;;;;3.97;1.80;;;;;;;16.61;58.21;101544.78;4847423;29;20121;-76
2022/01/10 04:46:51;;;;;;;3.58;1.90;;;;;;;16.64;58.43;101551.72;4833165;29;20079;-76
2022/01/10 04:49:26;;;;;;;3.55;1.98;;;;;;;16.63;57.68;101543.03;4864708;29;20054;-76
2022/01/10 04:51:52;;;;;;;4.20;2.20;;;;;;;16.63;58.44;101566.44;4848682;29;20045;-76
2022/01/10 04:54:18;;;;;;;3.60;1.80;;;;;;;16.65;58.08;101564.72;4848904;29;20037;-76
2022/01/10 04:56:44;;;;;;;3.70;1.90;;;;;;;16.65;57.82;101567.31;4864835;29;20060;-76
2022/01/10 04:59:09;;;;;;;3.15;1.80;;;;;;;16.64;57.95;101565.59;4832582;29;20048;-76
2022/01/10 05:01:35;;;;;;;3.47;1.90;;;;;;;16.66;57.80;101581.19;4833220;29;20050;-76
2022/01/10 05:04:00;;;;;;;4.45;1.90;;;;;;;16.66;57.98;101587.25;4848739;29;20385;-76
2022/01/10 05:06:26;;;;;;;3.60;1.80;;;;;;;16.66;57.42;101584.66;4848650;29;20446;-76
2022/01/10 05:08:51;;;;;;;3.00;1.83;;;;;;;16.67;58.03;101590.72;4832783;29;20037;-76
2022/01/10 05:11:17;;;;;;;3.00;1.75;;;;;;;16.67;57.36;101594.19;4848577;29;20090;-76
2022/01/10 05:13:42;;;;;;;3.90;1.98;;;;;;;16.67;57.49;101594.19;4848378;29;20485;-76
2022/01/10 05:16:08;;;;;;;3.00;1.80;;;;;;;16.68;57.09;101600.28;4850920;29;20041;-76
2022/01/10 05:18:33;;;;;;;2.67;1.75;;;;;;;16.67;57.35;101607.16;4834189;29;20037;-77
2022/01/10 05:20:59;;;;;;;2.60;1.50;;;;;;;16.68;57.22;101615.84;4851967;29;20103;-85
2022/01/10 05:23:24;;;;;;;3.22;1.90;;;;;;;16.68;57.39;101615.84;4850963;29;20041;-76
2022/01/10 05:25:49;;;;;;;4.53;1.80;;;;;;;16.69;57.05;101635.78;4846743;29;20072;-77
2022/01/10 05:28:17;;;;;;;3.20;1.55;;;;;;;16.69;57.32;101625.38;4846391;29;20045;-77
2022/01/10 05:30:43;;;;;;;2.85;1.90;;;;;;;16.69;57.19;101627.97;4863284;29;20377;-76
2022/01/10 05:33:09;;;;;;;4.80;1.70;;;;;;;16.70;57.03;101632.34;4831132;29;20038;-76
2022/01/10 05:35:39;;;;;;;3.28;1.77;;;;;;;16.71;56.72;101633.19;4846211;29;20485;-77
2022/01/10 05:38:06;;;;;;;4.00;1.60;;;;;;;16.71;57.00;101636.66;4846269;29;20061;-76
2022/01/10 05:40:31;;;;;;;4.07;1.70;;;;;;;16.72;56.70;101645.31;4846038;29;20046;-76
2022/01/10 05:42:57;;;;;;;3.53;1.67;;;;;;;16.73;57.31;101641.88;4830940;29;20101;-76
2022/01/10 05:45:23;;;;;;;3.13;1.80;;;;;;;16.71;56.92;101641.84;4845843;29;20557;-76
2022/01/10 05:47:48;;;;;;;5.18;1.90;;;;;;;16.70;57.20;101649.63;4845840;29;20073;-77
2022/01/10 05:50:19;;;;;;;2.85;1.60;;;;;;;16.70;56.52;101650.53;4830209;29;20136;-77
2022/01/10 05:52:45;;;;;;;3.08;1.75;;;;;;;16.71;57.16;101654.00;4845863;29;20101;-76
2022/01/10 05:55:11;;;;;;;4.22;1.80;;;;;;;16.70;56.45;101650.53;4846110;29;20046;-76
2022/01/10 05:57:37;;;;;;;3.38;1.70;;;;;;;16.69;56.69;101656.56;4830628;29;20038;-77
2022/01/10 06:00:04;;;;;;;3.80;1.90;;;;;;;16.69;56.83;101658.31;4845790;29;20040;-78
2022/01/10 06:02:30;;;;;;;2.80;1.42;;;;;;;16.69;57.05;101668.69;4830790;29;20117;-77
2022/01/10 06:04:59;;;;;;;3.83;1.55;;;;;;;16.69;57.01;101676.50;4862153;29;20477;-77
2022/01/10 06:07:24;;;;;;;3.60;2.00;;;;;;;16.69;56.98;101681.69;4862448;29;20041;-78
2022/01/10 06:09:49;;;;;;;4.18;2.38;;;;;;;16.68;57.80;101686.03;4862419;29;20057;-77
2022/01/10 06:12:15;;;;;;;6.90;2.85;;;;;;;16.70;57.16;101693.81;4845879;29;20076;-77
2022/01/10 06:14:40;;;;;;;6.55;2.63;;;;;;;16.72;57.05;101702.50;4830799;29;20124;-78
2022/01/10 06:17:05;;;;;;;5.18;2.95;;;;;;;16.71;57.42;101700.78;4862178;29;20097;-77
2022/01/10 06:19:31;;;;;;;6.85;3.13;;;;;;;16.72;57.60;101712.91;4845695;29;20052;-77
2022/01/10 06:21:56;;;;;;;8.27;3.55;;;;;;;16.72;57.85;101718.09;4830224;29;20097;-77
2022/01/10 06:24:21;;;;;;;8.40;3.28;;;;;;;16.72;57.52;101724.16;4830429;29;20124;-77
2022/01/10 06:26:47;;;;;;;7.97;3.00;;;;;;;16.72;56.99;101721.56;4830567;29;20092;-77
2022/01/10 06:29:12;;;;;;;7.45;2.90;;;;;;;16.73;57.34;101731.13;4845180;29;20033;-77
2022/01/10 06:31:37;;;;;;;6.90;3.17;;;;;;;16.73;57.10;101736.31;4845489;29;20492;-77
2022/01/10 06:34:03;;;;;;;8.25;3.28;;;;;;;16.73;57.10;101738.91;4845110;29;20116;-77
2022/01/10 06:36:28;;;;;;;8.30;3.25;;;;;;;16.74;57.18;101750.16;4845435;29;20045;-77
2022/01/10 06:38:53;;;;;;;5.57;2.75;;;;;;;16.75;57.41;101754.53;4830017;29;20154;-77
2022/01/10 06:41:19;;;;;;;6.25;2.75;;;;;;;16.75;56.96;101759.72;4830143;29;20048;-77
2022/01/10 06:43:44;;;;;;;7.35;2.90;;;;;;;16.75;57.28;101758.00;4845420;29;20045;-77
2022/01/10 06:46:10;;;;;;;5.68;2.80;;;;;;;16.75;57.35;101763.19;4844995;29;20073;-77
2022/01/10 06:48:35;;;;;;;7.00;2.65;;;;;;;16.75;57.28;101760.59;4829823;29;20128;-77
2022/01/10 06:51:01;;;;;;;7.53;2.70;;;;;;;16.75;57.09;101773.59;4861460;29;20049;-78
2022/01/10 06:53:26;;;;;;;7.45;2.80;;;;;;;16.75;57.19;101777.91;4829668;29;20041;-77
2022/01/10 06:55:51;;;;;;;6.03;2.80;;;;;;;16.76;57.18;101783.09;4829677;29;20037;-78
2022/01/10 06:58:17;;;;;;;7.63;2.75;;;;;;;16.76;57.26;101779.66;4829793;29;20142;-77
2022/01/10 07:00:43;;;;;;;7.40;2.78;;;;;;;16.76;57.43;101790.91;4861507;29;20045;-78
2022/01/10 07:03:08;;;;;;;5.80;2.60;;;;;;;16.76;57.08;101792.63;4844179;29;20041;-78
2022/01/10 07:05:33;;;;;;;4.90;2.40;;;;;;;16.77;57.21;101802.19;4844780;29;20140;-77
2022/01/10 07:07:59;;;;;;;5.93;2.70;;;;;;;16.76;57.06;101808.25;4844898;29;20048;-77
2022/01/10 07:10:24;;;;;;;5.70;2.78;;;;;;;16.76;57.11;101811.69;4845003;29;20049;-77
2022/01/10 07:12:50;;;;;;;5.85;2.90;;;;;;;16.76;57.18;101829.91;4829868;29;20143;-77
2022/01/10 07:15:15;;;;;;;4.60;2.60;;;;;;;16.77;57.22;101831.66;4830390;29;20038;-77
2022/01/10 07:17:41;;;;;;;5.10;2.72;;;;;;;16.77;57.09;101836.00;4845225;29;20101;-77
2022/01/10 07:20:06;;;;;;;5.95;2.45;;;;;;;16.78;56.93;101840.31;4830157;29;20037;-77
2022/01/10 07:22:32;;;;;;;6.32;2.53;;;;;;;16.77;56.98;101854.19;4844968;29;20178;-77
2022/01/10 07:24:57;;;;;;;4.38;2.30;;;;;;;16.78;57.16;101858.50;4844576;29;20473;-77
2022/01/10 07:27:23;;;;;;;6.07;2.30;;;;;;;16.77;57.07;101862.00;4861241;29;20080;-77
2022/01/10 07:29:50;;;;;;;5.47;2.35;;;;;;;16.77;57.19;101873.25;4829657;29;20045;-77
2022/01/10 07:32:17;;;;;;;4.45;2.30;;;;;;;16.77;57.04;101878.44;4861125;29;20038;-77
2022/01/10 07:34:42;;;;;;;5.78;2.10;;;;;;;16.77;56.91;101878.44;4845160;29;20496;-77
2022/01/10 07:37:07;;;;;;;4.97;2.13;;;;;;;16.78;57.03;101892.31;4829861;29;20046;-77
2022/01/10 07:39:33;;;;;;;4.32;2.38;;;;;;;16.78;57.05;101892.31;4814754;29;20059;-77
2022/01/10 07:41:58;;;;;;;5.40;2.55;;;;;;;16.77;57.03;101895.78;4861481;29;20041;-77
2022/01/10 07:44:24;;;;;;;4.07;2.30;;;;;;;16.79;56.90;101904.47;4861184;29;20037;-77
2022/01/10 07:46:49;;;;;;;6.57;2.63;;;;;;;16.79;57.07;101910.53;4829957;29;20045;-77
2022/01/10 07:49:14;;;;;;;4.85;2.55;;;;;;;16.79;56.86;101913.13;4829668;29;20084;-77
2022/01/10 07:51:40;;;;;;;5.20;2.47;;;;;;;16.79;56.90;101920.06;4861436;29;20144;-77
2022/01/10 07:54:06;;;;;;;4.53;2.40;;;;;;;16.80;56.89;101921.81;4844816;29;20057;-77
2022/01/10 07:56:31;;;;;;;4.03;1.90;;;;;;;16.80;56.75;101930.50;4829358;29;20042;-77
2022/01/10 07:58:57;;;;;;;4.00;2.30;;;;;;;16.81;56.70;101929.66;4829455;29;20038;-78
2022/01/10 08:01:22;;;;;;;4.28;2.50;;;;;;;16.81;56.88;101933.94;4844436;29;20469;-78
2022/01/10 08:03:50;;;;;;;5.47;2.53;;;;;;;16.81;56.88;101936.56;4844276;29;20045;-77
2022/01/10 08:06:17;;;;;;;4.65;2.35;;;;;;;16.82;56.95;101943.50;4829882;29;20182;-77
2022/01/10 08:08:42;;;;;;;5.30;2.47;;;;;;;16.82;56.75;101940.91;4813936;29;20046;-77
2022/01/10 08:11:08;;;;;;;4.72;2.40;;;;;;;16.99;55.66;101951.50;4835777;29;20041;-80
2022/01/10 08:13:33;;;;;;;6.80;2.40;;;;;;;17.13;55.56;101959.44;4851231;29;20057;-81
2022/01/10 08:15:59;;;;;;;4.47;2.30;;;;;;;17.22;55.12;101964.72;4836322;29;20049;-81
2022/01/10 08:18:24;;;;;;;8.88;2.30;;;;;;;17.23;54.78;101972.56;4850716;29;20033;-80
2022/01/10 08:20:50;;;;;;;4.32;1.80;;;;;;;17.26;55.06;101976.91;4821991;29;20045;-81
2022/01/10 08:23:15;;;;;;;4.10;2.28;;;;;;;17.29;54.82;101984.75;4837348;29;20046;-81
2022/01/10 08:25:41;;;;;;;4.40;2.03;;;;;;;17.30;54.83;101986.50;4870430;29;20098;-82
2022/01/10 08:28:06;;;;;;;5.28;2.20;;;;;;;17.28;54.96;101991.66;4870486;29;20041;-81
2022/01/10 08:30:32;;;;;;;4.93;2.20;;;;;;;17.34;54.72;101993.47;4852556;29;20098;-81
2022/01/10 08:32:57;;;;;;;4.28;2.00;;;;;;;17.35;54.98;101999.53;4837095;29;20052;-81
2022/01/10 08:35:23;;;;;;;4.60;1.90;;;;;;;17.34;54.75;102001.28;4852416;29;20040;-81
2022/01/10 08:37:49;;;;;;;3.80;2.08;;;;;;;17.37;54.41;101996.09;4867898;29;20041;-81
2022/01/10 08:40:15;;;;;;;4.50;2.20;;;;;;;17.38;54.49;101997.84;4851708;29;20388;-81
2022/01/10 08:42:41;;;;;;;4.72;2.42;;;;;;;17.39;54.57;102003.94;4836205;29;20052;-81
2022/01/10 08:45:08;;;;;;;4.32;2.05;;;;;;;17.39;54.23;101999.59;4852693;29;20033;-81
2022/01/10 08:47:34;;;;;;;5.45;2.03;;;;;;;17.42;54.59;101998.75;4852732;29;20042;-81
2022/01/10 08:49:59;;;;;;;4.65;2.10;;;;;;;17.44;54.36;102000.53;4851259;29;20053;-81
2022/01/10 08:52:25;;;;;;;4.30;2.00;;;;;;;17.42;54.52;101998.75;4852386;29;20045;-81
2022/01/10 10:25:13;;;;;;;3.95;1.90;;;;;;;17.54;54.18;102162.84;5037046;23;20053;-82
2022/01/10 10:40:54;;;;;;;4.50;1.95;;;;;;;17.57;53.95;102188.91;5059960;24;20073;-85
2022/01/10 10:54:07;;;;;;;2.70;1.77;;;;;;;17.56;53.95;102210.59;5110144;23;20061;-84
2022/01/10 10:59:55;;;;;;;3.05;1.95;;;;;;;17.58;53.92;102213.22;5231684;23;20069;-86
2022/01/10 12:14:42;;;;;;;3.03;2.00;;;;;;;17.63;53.85;102306.13;5092151;23;20056;-85
2022/01/10 12:20:22;;;;;;;2.72;1.90;;;;;;;17.62;54.04;102309.59;4926881;23;20076;-84
2022/01/10 12:26:01;;;;;;;3.58;2.10;;;;;;;17.63;54.21;102323.47;4965277;23;20056;-85
2022/01/10 12:40:23;;;;;;;3.35;2.30;;;;;;;17.62;53.57;102338.22;5552858;23;20063;-83
2022/01/10 12:53:08;;;;;;;4.30;2.00;;;;;;;17.59;53.62;102350.31;5074433;24;20061;-85
2022/01/10 13:11:43;;;;;;;3.97;2.28;;;;;;;17.61;53.80;102370.28;4895274;23;20042;-85
2022/01/10 13:14:21;;;;;;;3.45;2.47;;;;;;;17.60;53.60;102367.69;4858239;29;20089;-85
2022/01/10 13:44:20;;;;;;;4.03;2.58;;;;;;;17.62;53.78;102403.28;4847028;29;20043;-85
2022/01/10 14:00:34;;;;;;;3.70;2.40;;;;;;;17.59;53.54;102413.66;5018341;24;20061;-84
2022/01/10 14:03:01;;;;;;;3.80;2.70;;;;;;;17.60;53.34;102420.63;4811831;29;20039;-80
2022/01/10 14:14:39;;;;;;;4.22;2.60;;;;;;;17.70;53.70;102434.63;4979848;23;20056;-82
2022/01/10 14:17:10;;;;;;;4.22;2.53;;;;;;;17.71;53.24;102440.75;4822030;29;20046;-83
2022/01/10 14:19:35;;;;;;;5.18;2.60;;;;;;;17.71;53.59;102433.81;4825569;29;20146;-82
2022/01/10 14:22:01;;;;;;;5.18;3.05;;;;;;;17.73;53.49;102437.31;4801502;29;20584;-83
2022/01/10 14:24:26;;;;;;;5.82;2.60;;;;;;;17.76;53.48;102447.75;4835983;29;20075;-82
2022/01/10 14:33:49;;;;;;;4.97;2.53;;;;;;;17.79;53.51;102473.88;4845551;29;20079;-83
2022/01/10 14:39:43;;;;;;;4.05;2.47;;;;;;;17.79;53.14;102473.88;4847620;29;20026;-84
2022/01/10 14:47:57;;;;;;;3.28;2.25;;;;;;;17.84;53.47;102482.66;4248652;27;20028;-84
2022/01/10 14:50:23;;;;;;;5.25;2.17;;;;;;;17.84;53.54;102487.84;4881837;29;20048;-83
2022/01/10 15:22:26;;;;;;;4.28;2.10;;;;;;;17.82;53.41;102531.22;4845498;29;20094;-85
2022/01/10 15:24:53;;;;;;;3.58;2.10;;;;;;;17.81;53.15;102531.16;4896984;24;20065;-86
2022/01/10 15:27:19;;;;;;;3.63;2.38;;;;;;;17.82;53.45;102527.75;4847912;29;20137;-82
2022/01/10 15:29:46;;;;;;;3.58;2.10;;;;;;;17.82;53.29;102526.00;4849923;29;20053;-81
2022/01/10 15:32:11;;;;;;;4.50;2.42;;;;;;;17.83;53.67;102537.31;4839143;29;20046;-82
2022/01/10 15:34:37;;;;;;;3.67;2.22;;;;;;;17.81;53.55;102537.25;4818848;29;20064;-80
2022/01/10 15:37:06;;;;;;;5.65;2.45;;;;;;;17.81;53.55;102538.97;4839055;29;20046;-82
2022/01/10 15:40:00;;;;;;;3.42;2.35;;;;;;;17.81;53.48;102545.06;4862475;29;20041;-82
2022/01/10 15:42:46;;;;;;;4.00;2.50;;;;;;;17.82;53.42;102549.44;4845990;29;20114;-83
2022/01/10 15:45:13;;;;;;;5.72;2.60;;;;;;;17.84;53.29;102559.91;4842472;29;20034;-82
2022/01/10 15:47:39;;;;;;;4.18;2.30;;;;;;;17.82;53.50;102557.25;4856506;29;20054;-83
2022/01/10 15:50:09;;;;;;;3.30;2.28;;;;;;;17.81;53.50;102565.00;4839532;29;20053;-82
2022/01/10 15:52:36;;;;;;;4.50;2.33;;;;;;;17.82;53.48;102569.41;4840179;29;20566;-82
2022/01/10 15:55:01;;;;;;;4.88;2.30;;;;;;;17.83;53.31;102578.97;4838077;29;20046;-81
2022/01/10 15:57:31;;;;;;;4.25;2.20;;;;;;;17.83;53.38;102578.97;4854774;29;20386;-82
2022/01/10 15:59:56;;;;;;;4.05;2.30;;;;;;;17.83;53.54;102573.75;4860180;29;20038;-83
2022/01/10 16:02:21;;;;;;;3.50;2.20;;;;;;;17.82;53.38;102579.84;4858732;29;20056;-84
2022/01/10 16:04:47;;;;;;;4.70;2.42;;;;;;;17.82;53.48;102585.03;4838822;29;20121;-82
2022/01/10 16:07:13;;;;;;;4.00;1.92;;;;;;;17.81;53.32;102586.75;4829015;29;20481;-84
2022/01/10 16:09:42;;;;;;;4.03;2.50;;;;;;;17.84;53.38;102583.34;4860335;29;20076;-82
2022/01/10 16:12:08;;;;;;;4.72;2.20;;;;;;;17.82;52.99;102593.72;4862426;29;20485;-81
2022/01/10 16:14:36;;;;;;;4.90;2.60;;;;;;;17.83;53.58;102599.81;4838219;29;20082;-81
2022/01/10 16:17:03;;;;;;;6.35;2.55;;;;;;;17.84;53.32;102605.03;4837184;29;20045;-80
2022/01/10 16:19:28;;;;;;;4.43;2.50;;;;;;;17.83;53.68;102613.72;4853520;29;20044;-80
2022/01/10 16:21:54;;;;;;;6.65;2.47;;;;;;;17.82;53.41;102614.56;4818105;29;20468;-81
2022/01/10 16:24:19;;;;;;;5.65;2.25;;;;;;;17.82;53.46;102614.56;4832315;29;20046;-80
2022/01/10 16:26:45;;;;;;;4.78;2.35;;;;;;;17.85;53.32;102626.75;4852299;29;20060;-82
2022/01/10 16:29:11;;;;;;;5.13;2.47;;;;;;;17.83;53.46;102625.84;4818870;29;20451;-80
2022/01/10 16:31:38;;;;;;;3.30;2.13;;;;;;;17.84;53.33;102630.22;4837662;29;20038;-80
2022/01/10 16:34:03;;;;;;;6.75;2.38;;;;;;;17.84;53.27;102633.69;4823992;29;20488;-78
2022/01/10 16:36:30;;;;;;;3.70;2.38;;;;;;;17.82;53.57;102643.19;4836060;29;20037;-77
2022/01/10 16:38:56;;;;;;;4.10;2.60;;;;;;;17.83;53.58;102655.41;4819123;29;20045;-78
2022/01/10 16:41:22;;;;;;;4.13;2.20;;;;;;;17.79;53.37;102661.34;4833889;29;20071;-78
2022/01/10 16:43:48;;;;;;;5.68;2.38;;;;;;;17.77;53.55;102668.25;4834626;29;20038;-80
2022/01/10 16:46:14;;;;;;;3.80;2.25;;;;;;;17.75;53.64;102677.78;4803976;29;20449;-80
2022/01/10 16:48:40;;;;;;;4.75;2.40;;;;;;;17.73;53.59;102681.19;4833111;29;20030;-80
2022/01/10 16:51:07;;;;;;;5.07;2.60;;;;;;;17.72;53.63;102700.25;4832019;29;20049;-80
2022/01/10 16:53:34;;;;;;;5.13;2.40;;;;;;;17.72;53.55;102697.66;4832850;29;20038;-78
2022/01/10 16:55:59;;;;;;;3.38;2.20;;;;;;;17.70;53.48;102697.63;4834536;29;20081;-80
2022/01/10 16:58:25;;;;;;;4.55;2.42;;;;;;;17.68;53.58;102697.59;4816636;29;20125;-79
2022/01/10 17:00:50;;;;;;;3.63;2.22;;;;;;;17.67;53.69;102701.03;4815391;29;20046;-79
2022/01/10 17:03:16;;;;;;;3.22;2.20;;;;;;;17.67;53.63;102705.38;4815551;29;20046;-79
2022/01/10 17:05:43;;;;;;;4.55;2.28;;;;;;;17.66;53.67;102708.84;4832589;29;20516;-79